createdAt,value
2022-12-01T00:01:02.862Z,39.03
2022-12-01T00:04:06.067Z,38.43
2022-12-01T00:07:08.994Z,39.57
2022-12-01T00:10:28.607Z,38.13
2022-12-01T00:13:33.354Z,36.20
2022-12-01T00:16:36.454Z,37.00
2022-12-01T00:19:39.379Z,35.57
2022-12-01T00:22:44.556Z,35.47
2022-12-01T00:25:47.502Z,34.87
2022-12-01T00:28:52.372Z,34.37
2022-12-01T00:31:55.312Z,33.20
2022-12-01T00:34:58.180Z,33.67
2022-12-01T00:38:01.088Z,33.63
2022-12-01T00:41:04.351Z,35.00
2022-12-01T00:44:08.681Z,36.23
2022-12-01T00:47:11.592Z,37.00
2022-12-01T00:50:14.474Z,34.50
2022-12-01T00:53:17.464Z,36.47
2022-12-01T00:56:21.070Z,37.47
2022-12-01T00:59:25.417Z,34.97
2022-12-01T01:02:28.491Z,34.80
2022-12-01T01:05:31.604Z,36.60
2022-12-01T01:08:34.626Z,37.80
2022-12-01T01:11:37.821Z,37.83
2022-12-01T01:14:42.104Z,37.20
2022-12-01T01:17:44.999Z,38.30
2022-12-01T01:20:56.708Z,37.07
2022-12-01T01:23:59.613Z,36.17
2022-12-01T01:27:02.512Z,36.60
2022-12-01T01:30:08.368Z,36.27
2022-12-01T01:33:11.273Z,34.87
2022-12-01T01:36:15.035Z,34.37
2022-12-01T01:39:18.366Z,35.80
2022-12-01T01:42:22.057Z,36.43
2022-12-01T01:45:30.329Z,37.87
2022-12-01T01:48:34.472Z,38.23
2022-12-01T01:51:46.026Z,35.63
2022-12-01T01:54:53.228Z,36.57
2022-12-01T01:57:56.414Z,36.77
2022-12-01T02:01:00.884Z,36.57
2022-12-01T02:04:04.311Z,35.87
2022-12-01T02:07:08.392Z,36.60
2022-12-01T02:10:14.330Z,36.67
2022-12-01T02:13:23.294Z,37.20
2022-12-01T02:16:34.499Z,36.93
2022-12-01T02:19:57.179Z,38.40
2022-12-01T02:23:25.166Z,37.20
2022-12-01T02:26:51.868Z,36.50
2022-12-01T02:30:10.400Z,36.97
2022-12-01T02:33:20.441Z,35.90
2022-12-01T02:36:31.696Z,35.83
2022-12-01T02:39:39.666Z,33.23
2022-12-01T02:42:50.660Z,34.10
2022-12-01T02:45:57.253Z,36.27
2022-12-01T02:49:07.520Z,36.93
2022-12-01T02:52:12.719Z,37.37
2022-12-01T02:55:15.658Z,38.87
2022-12-01T02:58:18.579Z,38.07
2022-12-01T03:01:41.329Z,37.63
2022-12-01T03:04:56.603Z,38.37
2022-12-01T03:08:07.889Z,37.00
2022-12-01T03:11:26.842Z,36.90
2022-12-01T03:14:37.914Z,37.50
2022-12-01T03:17:46.159Z,39.23
2022-12-01T03:20:58.368Z,38.17
2022-12-01T03:24:05.282Z,38.30
2022-12-01T03:27:10.835Z,40.30
2022-12-01T03:30:15.205Z,39.23
2022-12-01T03:33:25.162Z,40.07
2022-12-01T03:36:35.415Z,39.77
2022-12-01T03:39:41.289Z,37.87
2022-12-01T03:42:49.409Z,39.97
2022-12-01T03:46:00.298Z,37.80
2022-12-01T03:49:05.579Z,40.50
2022-12-01T03:52:19.471Z,38.90
2022-12-01T03:55:26.228Z,40.00
2022-12-01T03:58:34.858Z,41.03
2022-12-01T04:01:38.182Z,39.97
2022-12-01T04:04:41.161Z,39.20
2022-12-01T04:07:45.595Z,40.40
2022-12-01T04:10:48.620Z,40.00
2022-12-01T04:13:50.530Z,39.33
2022-12-01T04:16:53.496Z,39.50
2022-12-01T04:19:56.546Z,40.57
2022-12-01T04:23:00.750Z,41.47
2022-12-01T04:26:05.472Z,42.00
2022-12-01T04:29:10.069Z,41.23
2022-12-01T04:32:13.519Z,40.97
2022-12-01T04:35:16.603Z,40.77
2022-12-01T04:38:20.949Z,41.87
2022-12-01T04:41:24.026Z,42.67
2022-12-01T04:44:32.997Z,40.30
2022-12-01T04:47:37.550Z,39.80
2022-12-01T04:50:41.902Z,40.70
2022-12-01T04:53:46.195Z,40.90
2022-12-01T04:56:49.336Z,40.03
2022-12-01T04:59:52.313Z,39.67
2022-12-01T05:02:55.372Z,41.47
2022-12-01T05:06:05.651Z,40.20
2022-12-01T05:09:17.122Z,41.63
2022-12-01T05:12:20.904Z,38.87
2022-12-01T05:15:23.800Z,41.03
2022-12-01T05:18:26.727Z,41.07
2022-12-01T05:21:28.681Z,39.83
2022-12-01T05:24:32.995Z,41.33
2022-12-01T05:27:35.884Z,39.40
2022-12-01T05:30:38.845Z,40.83
2022-12-01T05:33:41.769Z,41.50
2022-12-01T05:36:44.714Z,41.43
2022-12-01T05:39:49.171Z,41.57
2022-12-01T05:42:52.274Z,41.33
2022-12-01T05:45:56.322Z,41.93
2022-12-01T05:48:59.299Z,43.47
2022-12-01T05:52:02.197Z,42.77
2022-12-01T05:55:07.730Z,40.53
2022-12-01T05:58:11.068Z,42.30
2022-12-01T06:01:13.999Z,42.43
2022-12-01T06:04:17.019Z,40.93
2022-12-01T06:07:20.280Z,41.37
2022-12-01T06:10:24.654Z,41.93
2022-12-01T06:13:27.606Z,44.10
2022-12-01T06:16:30.515Z,43.00
2022-12-01T06:19:33.453Z,42.17
2022-12-01T06:22:36.478Z,43.03
2022-12-01T06:25:40.714Z,43.13
2022-12-01T06:28:43.638Z,42.17
2022-12-01T06:31:46.679Z,41.97
2022-12-01T06:34:49.596Z,43.20
2022-12-01T06:37:54.348Z,41.00
2022-12-01T06:40:58.737Z,40.23
2022-12-01T06:44:02.620Z,41.17
2022-12-01T06:47:05.854Z,41.97
2022-12-01T06:50:10.175Z,43.07
2022-12-01T06:53:13.085Z,43.50
2022-12-01T06:56:17.714Z,42.90
2022-12-01T06:59:21.029Z,43.23
2022-12-01T07:02:24.434Z,45.07
2022-12-01T07:05:27.520Z,41.97
2022-12-01T07:08:31.973Z,41.93
2022-12-01T07:11:36.909Z,47.53
2022-12-01T07:14:42.355Z,45.23
2022-12-01T07:17:45.254Z,46.70
2022-12-01T07:20:48.456Z,47.60
2022-12-01T07:23:51.369Z,48.70
2022-12-01T07:26:55.630Z,50.10
2022-12-01T07:29:58.536Z,48.50
2022-12-01T07:33:01.552Z,48.00
2022-12-01T07:36:06.143Z,47.83
2022-12-01T07:39:09.774Z,51.30
2022-12-01T07:42:14.002Z,48.60
2022-12-01T07:45:17.083Z,52.40
2022-12-01T07:48:19.985Z,52.87
2022-12-01T07:51:24.081Z,47.80
2022-12-01T07:54:27.127Z,50.60
2022-12-01T07:57:31.379Z,52.10
2022-12-01T08:00:34.395Z,53.50
2022-12-01T08:03:37.787Z,52.13
2022-12-01T08:06:40.770Z,54.80
2022-12-01T08:09:44.818Z,55.40
2022-12-01T08:12:49.435Z,54.77
2022-12-01T08:15:52.344Z,58.17
2022-12-01T08:18:56.040Z,55.90
2022-12-01T08:21:59.003Z,53.23
2022-12-01T08:25:02.218Z,55.30
2022-12-01T08:28:06.637Z,52.77
2022-12-01T08:31:11.697Z,48.00
2022-12-01T08:34:15.147Z,46.93
2022-12-01T08:37:18.023Z,49.77
2022-12-01T08:40:21.292Z,50.07
2022-12-01T08:43:55.959Z,51.00
2022-12-01T08:46:48.516Z,53.33
2022-12-01T08:49:51.750Z,52.03
2022-12-01T08:52:54.768Z,51.63
2022-12-01T08:56:01.232Z,51.60
2022-12-01T08:59:06.047Z,52.90
2022-12-01T09:02:13.788Z,54.70
2022-12-01T09:05:16.840Z,52.23
2022-12-01T09:08:35.721Z,53.57
2022-12-01T09:11:38.962Z,55.07
2022-12-01T09:14:47.992Z,53.73
2022-12-01T09:17:50.843Z,52.33
2022-12-01T09:20:54.767Z,54.80
2022-12-01T09:23:58.013Z,54.40
2022-12-01T09:27:03.248Z,54.70
2022-12-01T09:30:09.058Z,55.73
2022-12-01T09:33:12.061Z,55.10
2022-12-01T09:36:15.016Z,54.97
2022-12-01T09:39:20.425Z,55.83
2022-12-01T09:42:30.918Z,55.43
2022-12-01T09:45:44.116Z,52.30
2022-12-01T09:48:49.048Z,50.23
2022-12-01T09:51:53.626Z,46.93
2022-12-01T09:54:59.011Z,48.03
2022-12-01T09:58:04.858Z,47.03
2022-12-01T10:01:16.895Z,45.70
2022-12-01T10:04:25.539Z,45.77
2022-12-01T10:07:32.721Z,46.17
2022-12-01T10:10:39.700Z,45.43
2022-12-01T10:13:43.910Z,45.60
2022-12-01T10:16:56.790Z,46.37
2022-12-01T10:20:05.797Z,43.70
2022-12-01T10:23:28.969Z,45.97
2022-12-01T10:26:36.070Z,43.93
2022-12-01T10:29:47.693Z,42.03
2022-12-01T10:32:54.767Z,44.47
2022-12-01T10:35:58.988Z,43.20
2022-12-01T10:39:02.534Z,45.23
2022-12-01T10:42:08.452Z,45.37
2022-12-01T10:45:17.410Z,44.53
2022-12-01T10:48:23.373Z,44.10
2022-12-01T10:51:27.423Z,42.50
2022-12-01T10:54:36.178Z,44.90
2022-12-01T10:57:39.159Z,43.03
2022-12-01T11:00:59.611Z,41.97
2022-12-01T11:04:28.307Z,43.20
2022-12-01T11:07:36.083Z,44.90
2022-12-01T11:10:39.698Z,42.93
2022-12-01T11:13:43.497Z,44.17
2022-12-01T11:16:48.216Z,44.83
2022-12-01T11:19:52.834Z,42.67
2022-12-01T11:23:28.202Z,43.40
2022-12-01T11:26:32.851Z,44.57
2022-12-01T11:29:37.919Z,42.27
2022-12-01T11:32:41.443Z,43.97
2022-12-01T11:35:50.090Z,42.03
2022-12-01T11:38:58.440Z,44.63
2022-12-01T11:42:04.845Z,44.37
2022-12-01T11:45:19.426Z,44.03
2022-12-01T11:48:26.637Z,40.83
2022-12-01T11:51:37.403Z,44.33
2022-12-01T11:54:56.604Z,42.20
2022-12-01T11:58:02.787Z,41.90
2022-12-01T12:01:16.320Z,43.53
2022-12-01T12:04:34.405Z,42.60
2022-12-01T12:07:47.638Z,41.70
2022-12-01T12:10:57.085Z,40.07
2022-12-01T12:14:13.871Z,40.20
2022-12-01T12:17:40.072Z,39.33
2022-12-01T12:20:56.619Z,37.60
2022-12-01T12:24:30.783Z,38.80
2022-12-01T12:27:43.662Z,37.60
2022-12-01T12:30:53.666Z,39.20
2022-12-01T12:34:25.795Z,37.40
2022-12-01T12:37:40.542Z,37.23
2022-12-01T12:40:53.986Z,37.13
2022-12-01T12:44:07.653Z,36.27
2022-12-01T12:47:21.015Z,38.13
2022-12-01T12:50:29.295Z,35.90
2022-12-01T12:53:39.126Z,35.80
2022-12-01T12:56:53.592Z,39.30
2022-12-01T13:00:01.297Z,38.13
2022-12-01T13:03:14.235Z,38.93
2022-12-01T13:06:27.190Z,37.30
2022-12-01T13:09:37.160Z,38.17
2022-12-01T13:12:49.576Z,35.90
2022-12-01T13:15:55.521Z,35.00
2022-12-01T13:19:04.992Z,37.67
2022-12-01T13:22:10.589Z,37.47
2022-12-01T13:25:15.260Z,36.87
2022-12-01T13:28:22.987Z,38.50
2022-12-01T13:31:26.301Z,34.43
2022-12-01T13:34:35.391Z,35.63
2022-12-01T13:37:39.677Z,36.30
2022-12-01T13:40:42.648Z,37.50
2022-12-01T13:43:59.372Z,35.87
2022-12-01T13:47:07.042Z,35.63
2022-12-01T13:50:54.615Z,35.83
2022-12-01T13:54:28.872Z,37.37
2022-12-01T13:57:33.642Z,34.30
2022-12-01T14:00:38.424Z,34.97
2022-12-01T14:03:42.086Z,34.80
2022-12-01T14:06:49.526Z,35.83
2022-12-01T14:09:54.949Z,34.90
2022-12-01T14:13:02.761Z,35.17
2022-12-01T14:16:07.726Z,35.30
2022-12-01T14:19:28.929Z,37.37
2022-12-01T14:22:38.665Z,34.77
2022-12-01T14:25:42.818Z,35.50
2022-12-01T14:29:11.670Z,34.30
2022-12-01T14:32:24.961Z,32.73
2022-12-01T14:35:27.988Z,34.43
2022-12-01T14:38:30.971Z,36.03
2022-12-01T14:41:42.891Z,35.70
2022-12-01T14:44:50.035Z,35.60
2022-12-01T14:48:01.458Z,34.80
2022-12-01T14:51:20.712Z,36.23
2022-12-01T14:54:29.970Z,34.60
2022-12-01T14:57:35.824Z,33.93
2022-12-01T15:00:49.004Z,33.43
2022-12-01T15:03:56.048Z,34.13
2022-12-01T15:06:58.994Z,36.63
2022-12-01T15:10:04.113Z,35.03
2022-12-01T15:13:15.565Z,34.70
2022-12-01T15:16:20.929Z,33.17
2022-12-01T15:19:31.058Z,34.77
2022-12-01T15:22:35.349Z,35.33
2022-12-01T15:25:38.518Z,35.40
2022-12-01T15:28:41.415Z,33.23
2022-12-01T15:31:46.161Z,34.73
2022-12-01T15:34:53.764Z,33.77
2022-12-01T15:37:57.561Z,33.70
2022-12-01T15:44:30.519Z,32.00
2022-12-01T15:47:36.877Z,33.53
2022-12-01T15:50:46.384Z,35.20
2022-12-01T15:53:53.722Z,33.00
2022-12-01T15:56:58.578Z,33.33
2022-12-01T16:00:01.553Z,34.63
2022-12-01T16:03:04.917Z,35.03
2022-12-01T16:06:13.214Z,37.10
2022-12-01T16:09:24.388Z,35.00
2022-12-01T16:12:29.822Z,35.17
2022-12-01T16:15:43.633Z,34.27
2022-12-01T16:18:54.542Z,35.33
2022-12-01T16:22:04.623Z,38.00
2022-12-01T16:25:16.748Z,35.67
2022-12-01T16:28:23.383Z,34.97
2022-12-01T16:31:27.697Z,35.63
2022-12-01T16:34:45.840Z,37.17
2022-12-01T16:37:50.897Z,36.83
2022-12-01T16:40:56.130Z,35.43
2022-12-01T16:44:20.713Z,35.77
2022-12-01T16:47:24.593Z,35.60
2022-12-01T16:50:27.628Z,35.20
2022-12-01T16:53:32.095Z,35.63
2022-12-01T16:56:34.985Z,36.67
2022-12-01T16:59:37.965Z,38.17
2022-12-01T17:02:40.900Z,37.10
2022-12-01T17:05:43.835Z,35.20
2022-12-01T17:08:48.624Z,36.73
2022-12-01T17:11:51.548Z,35.10
2022-12-01T17:14:54.466Z,35.70
2022-12-01T17:17:57.422Z,35.20
2022-12-01T17:21:01.371Z,35.57
2022-12-01T17:24:06.060Z,35.87
2022-12-01T17:27:08.910Z,35.93
2022-12-01T17:30:12.969Z,34.70
2022-12-01T17:33:15.892Z,36.30
2022-12-01T17:36:19.188Z,34.60
2022-12-01T17:39:23.779Z,34.80
2022-12-01T17:42:26.720Z,33.40
2022-12-01T17:45:29.724Z,34.90
2022-12-01T17:48:37.121Z,33.90
2022-12-01T17:51:41.569Z,35.07
2022-12-01T17:54:45.845Z,35.90
2022-12-01T17:57:48.909Z,33.70
2022-12-01T18:00:53.248Z,36.40
2022-12-01T18:03:57.790Z,35.70
2022-12-01T18:07:01.277Z,35.50
2022-12-01T18:10:06.081Z,34.07
2022-12-01T18:13:08.971Z,36.07
2022-12-01T18:16:17.292Z,38.67
2022-12-01T18:19:20.559Z,35.97
2022-12-01T18:22:23.612Z,35.77
2022-12-01T18:25:27.940Z,34.47
2022-12-01T18:28:30.895Z,37.47
2022-12-01T18:31:34.490Z,35.63
2022-12-01T18:34:37.492Z,37.47
2022-12-01T18:37:40.433Z,37.20
2022-12-01T18:40:44.653Z,35.50
2022-12-01T18:43:48.298Z,36.47
2022-12-01T18:46:51.539Z,34.70
2022-12-01T18:49:54.598Z,34.53
2022-12-01T18:52:57.484Z,35.27
2022-12-01T18:56:04.420Z,35.97
2022-12-01T18:59:09.226Z,35.50
2022-12-01T19:02:12.164Z,34.93
2022-12-01T19:05:15.151Z,35.10
2022-12-01T19:08:18.100Z,34.17
2022-12-01T19:11:23.335Z,34.37
2022-12-01T19:14:27.818Z,34.93
2022-12-01T19:17:32.328Z,34.43
2022-12-01T19:20:38.322Z,34.90
2022-12-01T19:23:42.158Z,34.63
2022-12-01T19:26:46.531Z,34.60
2022-12-01T19:29:49.934Z,33.60
2022-12-01T19:32:53.089Z,35.30
2022-12-01T19:35:56.040Z,33.00
2022-12-01T19:39:00.560Z,33.53
2022-12-01T19:42:07.084Z,34.93
2022-12-01T19:45:11.153Z,32.97
2022-12-01T19:48:14.056Z,33.60
2022-12-01T19:51:18.856Z,34.20
2022-12-01T19:54:23.039Z,34.37
2022-12-01T19:57:27.282Z,33.90
2022-12-01T20:00:30.231Z,34.27
2022-12-01T20:03:33.506Z,33.03
2022-12-01T20:06:38.017Z,34.20
2022-12-01T20:09:46.846Z,33.03
2022-12-01T20:12:54.006Z,33.60
2022-12-01T20:16:02.410Z,33.43
2022-12-01T20:19:06.527Z,34.40
2022-12-01T20:22:09.451Z,32.40
2022-12-01T20:25:12.385Z,34.53
2022-12-01T20:28:16.623Z,34.67
2022-12-01T20:31:23.801Z,32.90
2022-12-01T20:34:29.858Z,31.97
2022-12-01T20:37:32.770Z,34.17
2022-12-01T20:40:35.720Z,29.93
2022-12-01T20:43:40.147Z,33.93
2022-12-01T20:46:45.292Z,33.53
2022-12-01T20:49:48.364Z,32.73
2022-12-01T20:52:51.319Z,33.83
2022-12-01T20:55:54.283Z,33.73
2022-12-01T20:58:59.916Z,32.37
2022-12-01T21:02:02.855Z,32.37
2022-12-01T21:05:06.631Z,32.93
2022-12-01T21:08:11.666Z,31.23
2022-12-01T21:11:40.178Z,32.20
2022-12-01T21:14:46.747Z,32.27
2022-12-01T21:17:53.851Z,31.13
2022-12-01T21:21:03.444Z,30.70
2022-12-01T21:24:15.560Z,33.40
2022-12-01T21:27:18.883Z,33.73
2022-12-01T21:30:25.759Z,33.27
2022-12-01T21:33:32.512Z,32.13
2022-12-01T21:36:36.173Z,31.63
2022-12-01T21:39:40.327Z,31.70
2022-12-01T21:42:43.290Z,29.87
2022-12-01T21:45:50.993Z,30.93
2022-12-01T21:48:53.942Z,30.97
2022-12-01T21:51:57.007Z,33.10
2022-12-01T21:55:03.356Z,32.50
2022-12-01T21:58:28.042Z,31.83
2022-12-01T22:01:33.798Z,34.40
2022-12-01T22:04:36.700Z,31.90
2022-12-01T22:07:39.683Z,33.53
2022-12-01T22:11:04.697Z,32.10
2022-12-01T22:14:15.468Z,31.90
2022-12-01T22:17:21.238Z,32.60
2022-12-01T22:20:24.295Z,32.20
2022-12-01T22:23:33.704Z,33.30
2022-12-01T22:26:38.716Z,31.53
2022-12-01T22:29:45.385Z,32.53
2022-12-01T22:32:57.329Z,31.03
2022-12-01T22:36:00.442Z,30.60
2022-12-01T22:39:10.662Z,31.80
2022-12-01T22:42:31.111Z,31.60
2022-12-01T22:45:34.413Z,34.10
2022-12-01T22:48:40.892Z,31.53
2022-12-01T22:51:47.403Z,32.47
2022-12-01T22:54:51.735Z,32.50
2022-12-01T22:57:55.926Z,30.10
2022-12-01T23:01:02.544Z,31.57
2022-12-01T23:04:20.173Z,30.63
2022-12-01T23:07:32.237Z,32.10
2022-12-01T23:10:36.103Z,31.70
2022-12-01T23:13:38.986Z,30.33
2022-12-01T23:16:42.033Z,28.47
2022-12-01T23:19:46.558Z,32.07
2022-12-01T23:22:49.817Z,32.10
2022-12-01T23:25:53.113Z,31.23
2022-12-01T23:28:58.704Z,29.47
2022-12-01T23:32:01.856Z,30.80
2022-12-01T23:35:07.860Z,31.97
2022-12-01T23:38:17.079Z,32.43
2022-12-01T23:41:25.725Z,30.17
2022-12-01T23:44:39.931Z,31.33
2022-12-01T23:47:42.999Z,29.57
2022-12-01T23:50:48.472Z,31.73
2022-12-01T23:53:52.399Z,30.40
2022-12-01T23:56:57.607Z,31.37
